createdAt,value
2019-04-18T00:04:04.265Z,76.07
2019-04-18T00:08:14.583Z,70.97
2019-04-18T00:12:24.563Z,75.33
2019-04-18T00:16:34.023Z,68.93
2019-04-18T00:20:44.867Z,59.70
2019-04-18T00:24:54.755Z,66.87
2019-04-18T00:29:04.108Z,67.13
2019-04-18T00:33:14.869Z,66.90
2019-04-18T00:37:25.051Z,56.07
2019-04-18T00:41:34.947Z,50.10
2019-04-18T00:45:46.289Z,47.97
2019-04-18T00:49:56.788Z,46.83
2019-04-18T00:54:06.312Z,48.17
2019-04-18T00:58:18.720Z,51.97
2019-04-18T01:02:26.975Z,42.40
2019-04-18T01:06:36.387Z,48.43
2019-04-18T01:10:45.880Z,45.00
2019-04-18T01:14:55.829Z,46.37
2019-04-18T01:19:05.406Z,46.87
2019-04-18T01:23:18.040Z,44.37
2019-04-18T01:27:25.388Z,43.53
2019-04-18T01:31:35.520Z,47.73
2019-04-18T01:40:11.067Z,36.60
2019-04-18T01:44:35.699Z,29.20
2019-04-18T01:48:46.864Z,22.60
2019-04-18T01:52:59.473Z,21.23
2019-04-18T01:57:07.666Z,20.53
2019-04-18T02:01:17.486Z,18.87
2019-04-18T02:05:30.948Z,15.67
2019-04-18T02:09:38.765Z,13.67
2019-04-18T02:13:52.401Z,17.03
2019-04-18T02:18:01.070Z,11.27
2019-04-18T02:22:15.095Z,10.87
2019-04-18T02:26:23.764Z,10.43
2019-04-18T02:30:33.526Z,7.80
2019-04-18T02:34:43.147Z,9.60
2019-04-18T02:38:55.424Z,8.73
2019-04-18T02:43:03.509Z,6.63
2019-04-18T02:47:15.154Z,5.23
2019-04-18T02:51:25.286Z,6.93
2019-04-18T02:55:50.922Z,4.57
2019-04-18T03:00:00.895Z,4.30
2019-04-18T03:04:28.985Z,4.90
2019-04-18T03:08:40.233Z,3.37
2019-04-18T03:12:49.687Z,3.27
2019-04-18T03:16:59.213Z,2.90
2019-04-18T03:21:10.645Z,2.80
2019-04-18T03:25:22.610Z,4.57
2019-04-18T03:29:30.597Z,2.30
2019-04-18T03:33:44.517Z,3.30
2019-04-18T03:37:51.072Z,3.20
2019-04-18T03:42:01.308Z,1.73
2019-04-18T03:46:25.641Z,2.47
2019-04-18T03:50:33.462Z,2.80
2019-04-18T03:54:46.431Z,2.27
2019-04-18T03:58:53.662Z,2.03
2019-04-18T04:03:06.717Z,1.60
2019-04-18T04:07:14.190Z,2.43
2019-04-18T04:11:24.045Z,1.70
2019-04-18T04:15:33.550Z,2.70
2019-04-18T04:19:42.967Z,2.10
2019-04-18T04:23:52.175Z,1.50
2019-04-18T04:28:01.397Z,1.23
2019-04-18T04:32:11.109Z,1.50
2019-04-18T04:36:25.828Z,1.57
2019-04-18T04:40:31.833Z,1.43
2019-04-18T04:44:41.933Z,2.43
2019-04-18T04:48:54.920Z,3.30
2019-04-18T04:53:03.681Z,5.50
2019-04-18T04:57:29.734Z,1.57
2019-04-18T05:01:39.386Z,1.70
2019-04-18T05:05:48.606Z,1.70
2019-04-18T05:09:58.081Z,1.33
2019-04-18T05:14:08.031Z,1.17
2019-04-18T05:18:17.509Z,2.17
2019-04-18T05:22:26.513Z,1.93
2019-04-18T05:26:36.468Z,1.20
2019-04-18T05:30:45.484Z,4.47
2019-04-18T05:34:55.201Z,2.13
2019-04-18T05:39:04.876Z,1.57
2019-04-18T05:43:14.308Z,2.50
2019-04-18T05:47:42.040Z,1.93
2019-04-18T05:52:04.595Z,3.00
2019-04-18T05:56:14.029Z,1.67
2019-04-18T06:00:47.252Z,1.23
2019-04-18T06:05:23.029Z,1.20
2019-04-18T06:09:36.302Z,1.80
2019-04-18T06:13:48.326Z,1.10
2019-04-18T06:18:08.859Z,2.20
2019-04-18T06:22:22.598Z,2.63
2019-04-18T06:26:44.115Z,2.00
2019-04-18T06:31:00.350Z,1.40
2019-04-18T06:35:13.944Z,1.73
2019-04-18T06:39:24.221Z,1.60
2019-04-18T06:43:31.817Z,1.87
2019-04-18T06:47:41.208Z,1.77
2019-04-18T06:51:50.846Z,1.97
2019-04-18T06:56:00.082Z,1.50
2019-04-18T07:00:12.032Z,1.40
2019-04-18T07:04:21.044Z,1.60
2019-04-18T07:08:45.404Z,1.30
2019-04-18T07:12:57.176Z,1.13
2019-04-18T07:17:08.373Z,1.90
2019-04-18T07:21:26.715Z,1.30
2019-04-18T07:25:33.335Z,1.70
2019-04-18T07:29:42.741Z,1.10
2019-04-18T07:33:51.943Z,1.87
2019-04-18T07:38:01.439Z,1.50
2019-04-18T07:42:11.034Z,2.27
2019-04-18T07:46:21.463Z,2.13
2019-04-18T07:50:31.365Z,2.03
2019-04-18T07:54:40.836Z,2.13
2019-04-18T07:59:05.121Z,2.97
2019-04-18T08:03:01.943Z,2.33
2019-04-18T08:07:11.312Z,3.10
2019-04-18T08:11:20.187Z,3.10
2019-04-18T08:15:29.472Z,3.70
2019-04-18T08:19:38.953Z,3.50
2019-04-18T08:23:51.657Z,3.53
2019-04-18T08:27:59.195Z,3.40
2019-04-18T08:32:10.857Z,4.87
2019-04-18T08:36:21.571Z,3.30
2019-04-18T08:40:47.636Z,4.07
2019-04-18T08:45:02.957Z,3.50
2019-04-18T08:49:18.984Z,4.20
2019-04-18T08:53:48.994Z,5.07
2019-04-18T08:57:55.497Z,4.10
2019-04-18T09:02:04.988Z,3.90
2019-04-18T09:06:28.851Z,4.47
2019-04-18T09:10:25.351Z,3.93
2019-04-18T09:14:39.194Z,4.10
2019-04-18T09:18:49.327Z,3.73
2019-04-18T09:23:05.887Z,4.37
2019-04-18T09:27:09.905Z,4.37
2019-04-18T09:31:20.125Z,4.43
2019-04-18T09:35:44.503Z,5.60
2019-04-18T09:39:43.098Z,5.07
2019-04-18T09:43:51.503Z,4.60
2019-04-18T09:48:00.890Z,4.80
2019-04-18T09:52:10.530Z,4.47
2019-04-18T09:56:20.226Z,4.47
2019-04-18T10:00:30.894Z,4.57
2019-04-18T10:04:41.540Z,6.83
2019-04-18T10:08:51.572Z,7.73
2019-04-18T10:13:01.951Z,7.87
2019-04-18T10:17:14.773Z,8.00
2019-04-18T10:21:26.787Z,8.63
2019-04-18T10:25:53.814Z,6.23
2019-04-18T10:30:28.256Z,7.33
2019-04-18T10:34:26.236Z,6.00
2019-04-18T10:38:35.730Z,6.70
2019-04-18T10:42:45.237Z,7.53
2019-04-18T10:46:54.444Z,8.20
2019-04-18T10:51:03.589Z,6.87
2019-04-18T10:55:13.123Z,9.77
2019-04-18T10:59:22.397Z,6.50
2019-04-18T11:03:31.543Z,6.20
2019-04-18T11:07:41.075Z,7.60
2019-04-18T11:11:50.686Z,7.07
2019-04-18T11:16:01.418Z,7.70
2019-04-18T11:20:11.044Z,7.83
2019-04-18T11:24:20.934Z,9.47
2019-04-18T11:28:30.452Z,7.17
2019-04-18T11:32:40.647Z,7.37
2019-04-18T11:36:50.364Z,7.30
2019-04-18T11:40:59.704Z,6.67
2019-04-18T11:45:09.058Z,7.13
2019-04-18T11:49:21.825Z,8.03
2019-04-18T11:53:31.151Z,9.50
2019-04-18T11:57:40.557Z,13.60
2019-04-18T12:01:54.682Z,19.13
2019-04-18T12:06:02.474Z,16.07
2019-04-18T12:10:12.826Z,18.13
2019-04-18T12:14:21.779Z,15.30
2019-04-18T12:18:31.166Z,16.00
2019-04-18T12:22:40.743Z,14.50
2019-04-18T12:26:52.275Z,11.97
2019-04-18T12:31:00.555Z,17.20
2019-04-18T12:35:10.513Z,14.37
2019-04-18T12:39:19.848Z,12.83
2019-04-18T12:43:29.232Z,12.67
2019-04-18T12:47:38.552Z,12.13
2019-04-18T12:51:48.244Z,13.50
2019-04-18T12:55:58.072Z,14.43
2019-04-18T13:00:08.248Z,13.23
2019-04-18T13:04:19.136Z,15.33
2019-04-18T13:08:49.231Z,14.87
2019-04-18T13:13:14.675Z,21.33
2019-04-18T13:17:29.333Z,16.40
2019-04-18T13:21:38.648Z,15.40
2019-04-18T13:25:48.063Z,22.03
2019-04-18T13:29:57.459Z,16.07
2019-04-18T13:34:06.999Z,13.17
2019-04-18T13:38:16.289Z,15.17
2019-04-18T13:42:26.052Z,14.70
2019-04-18T13:46:34.472Z,15.47
2019-04-18T13:50:43.965Z,23.73
2019-04-18T13:54:53.517Z,24.57
2019-04-18T13:59:02.841Z,32.33
2019-04-18T14:03:12.393Z,34.93
2019-04-18T14:07:21.726Z,32.67
2019-04-18T14:11:33.949Z,33.93
2019-04-18T14:15:43.958Z,33.20
2019-04-18T14:19:53.959Z,29.53
2019-04-18T14:24:03.959Z,36.80
2019-04-18T14:28:13.110Z,34.17
2019-04-18T14:32:33.657Z,36.97
2019-04-18T14:36:32.834Z,36.07
2019-04-18T14:40:42.594Z,39.37
2019-04-18T14:44:52.284Z,46.30
2019-04-18T14:49:02.420Z,42.87
2019-04-18T14:53:12.321Z,40.07
2019-04-18T14:57:21.991Z,41.97
2019-04-18T15:01:31.053Z,39.53
2019-04-18T15:05:40.461Z,36.73
2019-04-18T15:09:52.106Z,37.17
2019-04-18T15:14:01.477Z,34.93
2019-04-18T15:18:10.776Z,117.03
2019-04-18T15:22:20.258Z,63.67
2019-04-18T15:26:32.291Z,46.37
2019-04-18T15:30:41.963Z,42.60
2019-04-18T15:34:51.446Z,43.97
2019-04-18T15:39:01.019Z,37.40
2019-04-18T15:43:10.861Z,42.73
2019-04-18T15:47:26.151Z,40.20
2019-04-18T15:51:36.004Z,57.47
2019-04-18T15:55:45.255Z,41.00
2019-04-18T15:59:54.677Z,56.83
2019-04-18T16:04:04.275Z,57.03
2019-04-18T16:08:14.006Z,50.83
2019-04-18T16:12:23.900Z,46.00
2019-04-18T16:16:33.575Z,51.40
2019-04-18T16:20:43.269Z,43.07
2019-04-18T16:24:53.494Z,54.97
2019-04-18T16:29:02.879Z,44.23
2019-04-18T16:33:12.339Z,42.90
2019-04-18T16:37:21.750Z,43.80
2019-04-18T16:41:32.493Z,56.13
2019-04-18T16:45:43.000Z,42.43
2019-04-18T16:49:52.719Z,42.87
2019-04-18T16:54:02.398Z,45.73
2019-04-18T16:58:11.949Z,50.43
2019-04-18T17:02:21.467Z,45.03
2019-04-18T17:06:30.517Z,52.33
2019-04-18T17:10:40.436Z,66.63
2019-04-18T17:14:49.917Z,51.60
2019-04-18T17:19:00.430Z,51.70
2019-04-18T17:23:22.595Z,45.97
2019-04-18T17:27:32.011Z,51.80
2019-04-18T17:31:41.019Z,48.57
2019-04-18T17:36:02.589Z,43.27
2019-04-18T17:40:20.380Z,42.63
2019-04-18T17:44:13.737Z,49.43
2019-04-18T17:48:24.631Z,44.03
2019-04-18T17:52:43.424Z,43.40
2019-04-18T17:56:48.700Z,38.50
2019-04-18T18:00:58.908Z,39.80
2019-04-18T18:05:16.380Z,46.93
2019-04-18T18:09:20.749Z,46.93
2019-04-18T18:13:31.297Z,46.60
2019-04-18T18:17:47.290Z,43.10
2019-04-18T18:22:01.085Z,39.63
2019-04-18T18:26:10.262Z,44.73
2019-04-18T18:30:24.844Z,42.43
2019-04-18T18:34:47.361Z,48.03
2019-04-18T18:38:47.632Z,47.07
2019-04-18T18:43:00.751Z,49.80
2019-04-18T18:47:09.371Z,44.60
2019-04-18T18:51:19.637Z,45.67
2019-04-18T18:55:29.607Z,45.57
2019-04-18T18:59:39.744Z,36.60
2019-04-18T19:03:50.493Z,46.30
2019-04-18T19:12:52.841Z,36.80
2019-04-18T19:16:51.507Z,33.40
2019-04-18T19:20:54.597Z,31.90
2019-04-18T19:25:06.483Z,32.63
2019-04-18T19:29:20.594Z,30.13
2019-04-18T19:33:29.464Z,44.60
2019-04-18T19:38:00.727Z,27.23
2019-04-18T19:41:58.266Z,23.03
2019-04-18T19:46:00.176Z,20.77
2019-04-18T19:50:11.397Z,22.47
2019-04-18T19:54:20.982Z,20.37
2019-04-18T19:58:32.233Z,27.57
2019-04-18T20:02:43.540Z,25.93
2019-04-18T20:07:11.353Z,27.83
2019-04-18T20:11:17.325Z,19.80
2019-04-18T20:15:16.493Z,21.60
2019-04-18T20:19:27.294Z,23.00
2019-04-18T20:23:37.323Z,22.33
2019-04-18T20:27:48.632Z,21.53
2019-04-18T20:31:58.821Z,26.23
2019-04-18T20:36:30.846Z,18.80
2019-04-18T20:40:35.876Z,15.03
2019-04-18T20:44:40.636Z,18.50
2019-04-18T20:49:04.663Z,17.60
2019-04-18T20:53:11.837Z,26.30
2019-04-18T20:57:05.354Z,23.87
2019-04-18T21:01:14.738Z,18.27
2019-04-18T21:05:31.404Z,17.43
2019-04-18T21:09:47.356Z,17.60
2019-04-18T21:13:46.165Z,22.10
2019-04-18T21:18:01.266Z,20.90
2019-04-18T21:22:08.211Z,21.13
2019-04-18T21:26:20.902Z,19.33
2019-04-18T21:30:28.092Z,18.13
2019-04-18T21:34:45.049Z,17.17
2019-04-18T21:38:54.795Z,15.83
2019-04-18T21:43:04.080Z,16.77
2019-04-18T21:47:14.212Z,21.57
2019-04-18T21:51:23.096Z,23.67
2019-04-18T21:55:33.703Z,14.07
2019-04-18T21:59:50.380Z,18.30
2019-04-18T22:03:56.363Z,13.43
2019-04-18T22:08:11.566Z,15.50
2019-04-18T22:12:17.560Z,16.90
2019-04-18T22:16:29.291Z,15.13
2019-04-18T22:20:40.490Z,18.37
2019-04-18T22:24:55.875Z,11.67
2019-04-18T22:29:01.207Z,16.37
2019-04-18T22:33:32.442Z,13.63
2019-04-18T22:37:37.844Z,16.50
2019-04-18T22:41:45.730Z,12.03
2019-04-18T22:45:56.601Z,14.37
2019-04-18T22:50:06.176Z,10.00
2019-04-18T22:54:16.622Z,11.30
2019-04-18T22:58:27.642Z,14.53
2019-04-18T23:02:37.952Z,19.00
2019-04-18T23:06:49.304Z,20.77
2019-04-18T23:11:04.505Z,23.70
2019-04-18T23:15:10.949Z,18.67
2019-04-18T23:19:20.547Z,22.53
2019-04-18T23:23:30.620Z,19.07
2019-04-18T23:27:40.307Z,20.43
2019-04-18T23:31:54.648Z,94.27
2019-04-18T23:36:03.346Z,33.80
2019-04-18T23:40:14.406Z,40.60
2019-04-18T23:44:25.514Z,43.43
2019-04-18T23:48:38.497Z,46.43
2019-04-18T23:52:47.199Z,32.53
2019-04-18T23:56:57.431Z,44.07
